EA5AFP-10 Ador ES current weather conditions

sailwx.info

Wind from 315 at 5 knots gusting 8

Air temperature 34.4° C
Dewpoint -21.6° C

Last reported at 2018-Jul-16 13:59 UTC.
Time now 2018-Jul-16 14:45 UTC

Location: N 38°55' W 000°13'.
View on Google Maps.

See reports from other nearby stations

  
Tides and Currents Weather Stations Pressure Air Temp Water Temp Dewpoint Dewpoint Depression Visibility Wind Speed Wind Dir Waves Ship Positions
date/time (UTC)wind fromknots sea level pressurealtimeterstation pressurevisibilityair tempwater tempwave heightnotes
2018-Jul-16 14:27 270 2 gusting 6 35.0
2018-Jul-16 14:11 090 3 gusting 7 34.4
2018-Jul-16 13:59 315 5 gusting 8 34.4
2018-Jul-16 13:45 270 5 gusting 9 34.4
2018-Jul-16 13:33 270 4 gusting 6 34.4
2018-Jul-16 13:15 270 3 gusting 6 34.4
2018-Jul-16 13:04 270 5 gusting 7 33.9
2018-Jul-16 12:50 270 2 gusting 5 33.9
2018-Jul-16 12:37 315 6 gusting 12 33.9
2018-Jul-16 12:23 315 4 gusting 7 33.9
2018-Jul-16 12:08 270 6 gusting 10 32.8
2018-Jul-16 11:56 270 5 gusting 8 32.8
2018-Jul-16 11:43 270 8 gusting 12 32.8
2018-Jul-16 11:39 32.8
2018-Jul-16 11:28 31.7
2018-Jul-16 11:16 31.7
2018-Jul-16 11:12 315 5 gusting 12 31.7
2018-Jul-16 11:02 270 5 gusting 9 31.1
2018-Jul-16 10:47 315 12 gusting 18 31.1
2018-Jul-16 10:34 315 7 gusting 16 31.1
2018-Jul-16 10:20 315 10 gusting 13 30.6
2018-Jul-16 10:18 30.6
2018-Jul-16 10:08 270 9 gusting 14 30.0
2018-Jul-16 09:55 315 7 gusting 13 30.0
2018-Jul-16 09:53 270 10 gusting 16 30.0
2018-Jul-16 09:40 270 9 gusting 16 30.0
2018-Jul-16 09:28 29.4
2018-Jul-16 09:14 28.9
2018-Jul-16 09:00 270 5 gusting 11 28.9
2018-Jul-16 08:45 315 5 gusting 7 28.9
2018-Jul-16 08:33 270 5 gusting 9 28.3
2018-Jul-16 08:20 27.8
2018-Jul-16 08:05 270 9 gusting 16 27.2
2018-Jul-16 08:04 225 6 gusting 9 27.2
2018-Jul-16 07:51 27.2
2018-Jul-16 07:38 270 13 gusting 21 27.2
2018-Jul-16 07:23 27.2
2018-Jul-16 07:09 26.7
2018-Jul-16 06:57 270 4 gusting 7 26.7
2018-Jul-16 06:42 270 5 gusting 9 26.1
2018-Jul-16 06:28 315 8 gusting 13 26.1
2018-Jul-16 06:15 25.6
2018-Jul-16 06:14 25.6
2018-Jul-16 06:00 25.6
2018-Jul-16 05:48 25.6
2018-Jul-16 05:31 315 3 gusting 9 25.6
2018-Jul-16 05:21 180 4 gusting 9 25.0
2018-Jul-16 05:17 225 4 gusting 8 25.0
2018-Jul-16 05:02 270 3 gusting 7 25.6
2018-Jul-16 04:54 270 5 gusting 7 25.6
2018-Jul-16 04:36 270 1 gusting 2 25.6
2018-Jul-16 04:26 25.6
2018-Jul-16 04:23 135 0 gusting 2 25.6
2018-Jul-16 04:11 225 1 gusting 3 26.1
2018-Jul-16 03:58 270 1 gusting 5 26.1
2018-Jul-16 03:45 270 6 gusting 12 26.1
2018-Jul-16 03:31 26.7
2018-Jul-16 03:16 270 6 gusting 13 26.7
2018-Jul-16 03:04 180 8 gusting 21 26.7
2018-Jul-16 02:47 270 5 gusting 11 27.2
2018-Jul-16 02:33 270 7 gusting 13 27.2
2018-Jul-16 02:21 270 7 gusting 13 27.8
2018-Jul-16 02:11 270 6 gusting 13 27.8
2018-Jul-16 02:06 090 6 gusting 10 27.8
2018-Jul-16 01:52 225 8 gusting 12 28.3
2018-Jul-16 01:43 270 5 gusting 14 28.3
2018-Jul-16 01:38 270 13 gusting 19 28.3
2018-Jul-16 01:23 270 6 gusting 13 28.3
2018-Jul-16 01:16 270 6 gusting 13 28.3
2018-Jul-16 01:09 28.3
2018-Jul-16 00:57 270 6 gusting 11 28.3
2018-Jul-16 00:49 180 5 gusting 10 28.9
2018-Jul-16 00:44 270 7 gusting 13 28.9
2018-Jul-16 00:31 225 6 gusting 11 28.9
2018-Jul-16 00:19 270 2 gusting 6 28.3
2018-Jul-16 00:06 28.3
2018-Jul-15 23:52 270 4 gusting 6 28.9
2018-Jul-15 23:36 225 0 gusting 2 28.9
2018-Jul-15 23:25 28.9
2018-Jul-15 23:22 28.9
2018-Jul-15 23:10 225 2 gusting 4 28.9
2018-Jul-15 22:57 270 0 gusting 5 29.4
2018-Jul-15 22:43 270 4 gusting 7 29.4
2018-Jul-15 22:33 270 1 gusting 3 28.9
2018-Jul-15 22:28 270 2 gusting 3 28.9
2018-Jul-15 22:15 270 2 gusting 3 29.4
2018-Jul-15 22:06 270 2 gusting 4 29.4
2018-Jul-15 22:01 270 2 gusting 4 29.4
2018-Jul-15 21:48 270 2 gusting 4 30.0
2018-Jul-15 21:37 315 2 gusting 5 30.6
2018-Jul-15 21:21 225 1 gusting 4 30.6
2018-Jul-15 21:10 30.6
2018-Jul-15 21:09 270 2 gusting 4 30.6
2018-Jul-15 20:55 225 2 gusting 5 31.1
2018-Jul-15 20:44 270 5 gusting 11 31.1
2018-Jul-15 20:26 270 5 gusting 7 32.8
2018-Jul-15 20:17 180 4 gusting 7 33.3
2018-Jul-15 20:12 270 0 gusting 2 33.3
2018-Jul-15 19:57 225 3 gusting 7 33.9
2018-Jul-15 19:52 270 2 gusting 6 33.9
2018-Jul-15 19:44 270 1 gusting 6 33.9
2018-Jul-15 19:31 135 2 gusting 6 34.4
2018-Jul-15 19:26 270 2 gusting 6 34.4
2018-Jul-15 19:25 270 2 gusting 6 34.4
2018-Jul-15 19:19 270 5 gusting 15 34.4
2018-Jul-15 19:06 270 3 gusting 7 34.4
2018-Jul-15 18:58 225 5 gusting 13 34.4
2018-Jul-15 18:54 34.4
2018-Jul-15 18:39 090 1 gusting 3 33.3
2018-Jul-15 18:26 225 33.3
2018-Jul-15 18:14 045 33.3
2018-Jul-15 18:06 180 0 gusting 2 33.9
2018-Jul-15 17:59 33.9
2018-Jul-15 17:45 090 33.3
2018-Jul-15 17:40 33.3
2018-Jul-15 17:30 33.3
2018-Jul-15 17:18 315 1 gusting 2 33.3
2018-Jul-15 17:13 090 33.9
2018-Jul-15 17:05 090 33.9
2018-Jul-15 16:52 33.3
2018-Jul-15 16:43 33.3
2018-Jul-15 16:40 045 1 gusting 3 33.3
2018-Jul-15 16:28 090 1 gusting 3 33.3
2018-Jul-15 16:20 33.3
2018-Jul-15 16:14 33.3
2018-Jul-15 16:00 33.3
2018-Jul-15 15:49 315 0 gusting 2 32.8
2018-Jul-15 15:33 045 6 gusting 11 33.3
2018-Jul-15 15:23 090 2 gusting 6 33.3
2018-Jul-15 15:19 045 3 gusting 5 33.3
2018-Jul-15 15:06 090 6 gusting 11 33.3
2018-Jul-15 14:57 045 2 gusting 7 33.3
2018-Jul-15 14:51 090 4 gusting 9 33.3
2018-Jul-15 14:39 32.8
2018-Jul-15 14:32 090 6 gusting 8 32.8
2018-Jul-15 14:26 090 2 gusting 4 32.8
2018-Jul-15 14:13 32.2
2018-Jul-15 14:04 045 5 gusting 7 32.8
2018-Jul-15 13:58 090 5 gusting 9 32.2
2018-Jul-15 13:43 090 5 gusting 8 32.8
2018-Jul-15 13:31 090 4 gusting 10 33.9
2018-Jul-15 13:18 090 4 gusting 8 33.9
2018-Jul-15 13:08 090 5 gusting 8 33.9
2018-Jul-15 13:04 045 2 gusting 5 33.9
2018-Jul-15 12:52 045 5 gusting 8 33.9
2018-Jul-15 12:39 090 3 gusting 7 33.9
2018-Jul-15 12:25 090 5 gusting 9 34.4
2018-Jul-15 12:13 090 2 gusting 5 34.4
2018-Jul-15 11:58 090 2 gusting 5 34.4
2018-Jul-15 11:46 090 2 gusting 6 34.4
2018-Jul-15 11:32 045 2 gusting 5 34.4
2018-Jul-15 11:19 135 2 gusting 6 33.9
2018-Jul-15 11:06 045 3 gusting 6 33.9
2018-Jul-15 10:54 33.9
2018-Jul-15 10:42 090 2 gusting 6 33.9
2018-Jul-15 10:27 33.9
2018-Jul-15 10:23 045 2 gusting 5 33.9
2018-Jul-15 10:12 045 2 gusting 5 33.9
2018-Jul-15 09:58 090 3 gusting 5 33.9
2018-Jul-15 09:46 35.0
2018-Jul-15 09:33 225 0 gusting 2 33.9
2018-Jul-15 09:25 180 3 gusting 5 33.9
2018-Jul-15 09:18 270 1 gusting 2 33.3
2018-Jul-15 09:05 270 4 gusting 9 32.8
2018-Jul-15 08:59 225 2 gusting 5 32.8
2018-Jul-15 08:50 270 5 gusting 7 32.2
2018-Jul-15 08:38 270 5 gusting 9 31.7
2018-Jul-15 08:33 225 4 gusting 8 31.7
2018-Jul-15 08:24 270 5 gusting 7 31.7
2018-Jul-15 08:12 315 3 gusting 5 31.1
2018-Jul-15 08:07 270 5 gusting 7 30.6
2018-Jul-15 07:58 270 2 gusting 5 30.6
2018-Jul-15 07:45 225 5 gusting 6 30.0
2018-Jul-15 07:37 270 5 gusting 8 29.4
2018-Jul-15 07:31 270 5 gusting 10 29.4
2018-Jul-15 07:19 225 4 gusting 7 28.9
2018-Jul-15 07:09 270 5 gusting 6 28.3
2018-Jul-15 06:52 270 5 gusting 7 27.8
2018-Jul-15 06:43 270 3 gusting 7 27.2
2018-Jul-15 06:38 135 6 gusting 10 27.2
2018-Jul-15 06:24 270 3 gusting 6 26.7
2018-Jul-15 06:18 270 7 gusting 11 26.7
2018-Jul-15 06:09 270 4 gusting 8 26.7
2018-Jul-15 05:56 225 3 gusting 6 26.1
2018-Jul-15 05:53 225 2 gusting 4 25.6
2018-Jul-15 05:42 225 5 gusting 7 25.6
2018-Jul-15 05:28 225 5 gusting 10 25.0
2018-Jul-15 05:24 270 2 gusting 6 25.0
2018-Jul-15 05:15 270 5 gusting 9 25.0
2018-Jul-15 05:00 315 2 gusting 5 25.0
2018-Jul-15 04:59 270 5 gusting 8 25.0
2018-Jul-15 04:48 24.4
2018-Jul-15 04:34 315 2 gusting 5 24.4
2018-Jul-15 04:19 270 3 gusting 7 25.0
2018-Jul-15 04:06 270 2 gusting 5 25.0
2018-Jul-15 04:04 315 2 gusting 4 25.0
2018-Jul-15 03:53 270 1 gusting 2 25.0
2018-Jul-15 03:39 270 3 gusting 6 25.0
2018-Jul-15 03:25 315 1 gusting 3 23.9
2018-Jul-15 03:10 23.9
2018-Jul-15 02:58 23.9
2018-Jul-15 02:44 270 24.4
2018-Jul-15 02:31 270 2 gusting 2 24.4
2018-Jul-15 02:17 270 24.4
2018-Jul-15 02:03 270 0 gusting 2 24.4
2018-Jul-15 01:48 270 1 gusting 2 24.4
2018-Jul-15 01:35 270 1 gusting 2 24.4
2018-Jul-15 01:10 25.0
2018-Jul-15 00:57 25.0
2018-Jul-15 00:42 180 1 gusting 2 25.0
2018-Jul-15 00:30 25.6
2018-Jul-15 00:15 25.6
2018-Jul-15 00:02 135 1 gusting 2 26.1
2018-Jul-14 23:49 225 2 gusting 3 26.7
2018-Jul-14 23:35 225 0 gusting 2 26.7
2018-Jul-14 23:23 270 3 gusting 5 26.7
2018-Jul-14 23:11 315 4 gusting 6 26.7
2018-Jul-14 23:06 270 3 gusting 6 26.7
2018-Jul-14 22:56 315 5 gusting 8 26.7
2018-Jul-14 22:42 270 4 gusting 8 27.2
2018-Jul-14 22:38 315 5 gusting 8 27.2
2018-Jul-14 22:28 270 4 gusting 6 27.2
2018-Jul-14 22:15 225 5 gusting 9 27.8
2018-Jul-14 22:09 270 6 gusting 9 27.8
2018-Jul-14 22:02 270 6 gusting 14 27.8
2018-Jul-14 21:49 315 6 gusting 12 28.3
2018-Jul-14 21:43 045 5 gusting 10 28.3
2018-Jul-14 21:37 270 7 gusting 10 28.3
2018-Jul-14 21:24 28.9
2018-Jul-14 21:16 225 9 gusting 14 28.9
2018-Jul-14 21:10 270 5 gusting 10 28.9
2018-Jul-14 20:58 270 2 gusting 7 28.9
2018-Jul-14 20:48 270 5 gusting 13 29.4
2018-Jul-14 20:31 270 2 gusting 4 30.0
2018-Jul-14 20:19 270 0 gusting 2 30.6
2018-Jul-14 20:03 315 1 gusting 4 30.6
2018-Jul-14 19:53 270 1 gusting 2 30.6
2018-Jul-14 19:50 270 0 gusting 1 30.6
2018-Jul-14 19:37 225 0 gusting 2 31.1
2018-Jul-14 19:27 270 0 gusting 2 31.1
2018-Jul-14 19:22 270 0 gusting 2 31.7
2018-Jul-14 19:08 270 0 gusting 2 32.2
2018-Jul-14 18:59 270 32.8
2018-Jul-14 18:42 090 2 gusting 5 33.3
2018-Jul-14 18:31 33.3
2018-Jul-14 18:29 33.9
2018-Jul-14 18:16 33.9
2018-Jul-14 18:04 33.9
2018-Jul-14 17:50 090 4 gusting 6 34.4
2018-Jul-14 17:37 090 2 gusting 5 34.4
2018-Jul-14 17:22 045 4 gusting 7 34.4
2018-Jul-14 17:10 045 3 gusting 6 34.4
2018-Jul-14 16:44 33.9
2018-Jul-14 16:39 045 1 gusting 4 33.9
2018-Jul-14 16:32 090 2 gusting 5 33.3
2018-Jul-14 16:19 045 5 gusting 8 33.9
2018-Jul-14 16:07 135 2 gusting 5 33.9
2018-Jul-14 15:52 090 2 gusting 5 33.9
2018-Jul-14 15:39 045 5 gusting 8 33.9
2018-Jul-14 15:25 090 4 gusting 7 33.9
2018-Jul-14 15:12 32.8
2018-Jul-14 15:04 32.8
2018-Jul-14 14:56 32.8
2018-Jul-14 14:50 32.8
2018-Jul-14 14:37 045 4 gusting 6 32.2
2018-Jul-14 14:25 045 5 gusting 7 31.7
2018-Jul-14 14:11 090 4 gusting 7 31.7
2018-Jul-14 14:04 090 4 gusting 10 31.7